createdAt,value
2018-01-23T00:02:21.437Z,7.53
2018-01-23T00:04:49.010Z,7.43
2018-01-23T00:07:16.597Z,9.00
2018-01-23T00:09:44.158Z,8.50
2018-01-23T00:12:11.750Z,9.30
2018-01-23T00:14:39.350Z,8.67
2018-01-23T00:17:06.942Z,8.70
2018-01-23T00:19:34.509Z,8.97
2018-01-23T00:22:02.138Z,9.37
2018-01-23T00:24:30.473Z,10.27
2018-01-23T00:26:58.062Z,10.97
2018-01-23T00:29:26.398Z,17.80
2018-01-23T00:31:54.037Z,9.47
2018-01-23T00:34:21.614Z,13.00
2018-01-23T00:36:49.209Z,8.57
2018-01-23T00:39:16.780Z,11.30
2018-01-23T00:41:45.146Z,8.67
2018-01-23T00:44:12.713Z,10.40
2018-01-23T00:46:41.062Z,10.20
2018-01-23T00:49:08.662Z,10.70
2018-01-23T00:51:37.001Z,10.67
2018-01-23T00:54:04.590Z,7.70
2018-01-23T00:56:32.150Z,7.47
2018-01-23T00:59:00.509Z,7.60
2018-01-23T01:01:28.082Z,6.90
2018-01-23T01:03:55.683Z,7.57
2018-01-23T01:06:23.251Z,7.43
2018-01-23T01:08:50.839Z,7.50
2018-01-23T01:11:18.408Z,5.87
2018-01-23T01:13:46.006Z,5.63
2018-01-23T01:16:13.582Z,6.57
2018-01-23T01:18:41.180Z,7.30
2018-01-23T01:21:08.745Z,6.47
2018-01-23T01:23:36.338Z,5.70
2018-01-23T01:26:03.910Z,8.07
2018-01-23T01:28:31.502Z,6.67
2018-01-23T01:30:59.072Z,6.03
2018-01-23T01:33:26.665Z,6.13
2018-01-23T01:35:54.996Z,6.70
2018-01-23T01:38:22.606Z,7.90
2018-01-23T01:40:50.177Z,5.50
2018-01-23T01:43:17.765Z,5.60
2018-01-23T01:45:45.335Z,5.90
2018-01-23T01:48:12.978Z,5.70
2018-01-23T01:50:40.722Z,7.83
2018-01-23T01:53:08.314Z,7.23
2018-01-23T01:55:35.877Z,6.20
2018-01-23T01:58:03.458Z,5.67
2018-01-23T02:00:31.059Z,5.77
2018-01-23T02:02:58.629Z,7.30
2018-01-23T02:05:26.226Z,6.03
2018-01-23T02:07:53.797Z,5.43
2018-01-23T02:10:21.400Z,5.77
2018-01-23T02:12:48.985Z,5.10
2018-01-23T02:15:16.579Z,4.87
2018-01-23T02:17:44.920Z,5.80
2018-01-23T02:20:12.510Z,7.30
2018-01-23T02:22:40.073Z,4.87
2018-01-23T02:25:07.674Z,5.10
2018-01-23T02:27:35.243Z,6.03
2018-01-23T02:30:02.834Z,5.83
2018-01-23T02:32:30.405Z,5.77
2018-01-23T02:34:58.019Z,4.50
2018-01-23T02:37:25.595Z,5.50
2018-01-23T02:39:53.206Z,5.57
2018-01-23T02:42:21.556Z,4.33
2018-01-23T02:44:49.149Z,6.00
2018-01-23T02:47:16.723Z,5.13
2018-01-23T02:49:44.313Z,4.27
2018-01-23T02:52:11.882Z,5.33
2018-01-23T02:54:39.473Z,4.90
2018-01-23T02:57:07.033Z,4.50
2018-01-23T02:59:35.392Z,4.67
2018-01-23T03:02:03.037Z,4.80
2018-01-23T03:04:30.637Z,5.00
2018-01-23T03:06:58.201Z,5.00
2018-01-23T03:09:25.769Z,6.93
2018-01-23T03:11:53.353Z,4.67
2018-01-23T03:14:20.923Z,4.60
2018-01-23T03:16:48.524Z,5.27
2018-01-23T03:19:16.863Z,6.20
2018-01-23T03:21:44.470Z,5.57
2018-01-23T03:24:12.040Z,4.37
2018-01-23T03:26:39.625Z,4.13
2018-01-23T03:29:07.190Z,5.53
2018-01-23T03:31:34.785Z,4.33
2018-01-23T03:34:03.128Z,4.80
2018-01-23T03:36:30.726Z,3.90
2018-01-23T03:38:58.300Z,3.60
2018-01-23T03:41:25.906Z,4.97
2018-01-23T03:43:53.478Z,3.63
2018-01-23T03:46:21.065Z,3.80
2018-01-23T03:48:49.401Z,4.63
2018-01-23T03:51:16.990Z,5.50
2018-01-23T03:53:44.564Z,4.60
2018-01-23T03:56:12.162Z,5.60
2018-01-23T03:58:39.741Z,4.67
2018-01-23T04:01:07.337Z,4.13
2018-01-23T04:03:35.672Z,3.67
2018-01-23T04:06:03.250Z,4.43
2018-01-23T04:08:30.812Z,3.70
2018-01-23T04:10:58.408Z,3.37
2018-01-23T04:13:25.986Z,4.37
2018-01-23T04:15:53.577Z,3.73
2018-01-23T04:18:21.141Z,5.37
2018-01-23T04:20:48.742Z,4.07
2018-01-23T04:23:16.308Z,5.43
2018-01-23T04:25:43.912Z,9.30
2018-01-23T04:28:11.495Z,4.67
2018-01-23T04:30:39.067Z,4.50
2018-01-23T04:33:06.659Z,5.90
2018-01-23T04:35:34.233Z,14.57
2018-01-23T04:38:01.816Z,12.53
2018-01-23T04:40:29.397Z,9.00
2018-01-23T04:42:57.760Z,4.40
2018-01-23T04:45:25.330Z,9.60
2018-01-23T04:47:52.921Z,8.60
2018-01-23T04:50:20.495Z,10.83
2018-01-23T04:52:48.090Z,11.90
2018-01-23T04:55:15.667Z,10.53
2018-01-23T04:57:44.034Z,5.30
2018-01-23T05:00:11.606Z,4.87
2018-01-23T05:02:39.204Z,5.37
2018-01-23T05:05:06.768Z,9.63
2018-01-23T05:07:34.355Z,8.00
2018-01-23T05:10:02.692Z,9.00
2018-01-23T05:12:30.291Z,10.17
2018-01-23T05:14:57.853Z,7.60
2018-01-23T05:17:25.446Z,9.00
2018-01-23T05:19:53.018Z,13.77
2018-01-23T05:22:20.610Z,5.57
2018-01-23T05:24:48.180Z,7.30
2018-01-23T05:27:15.771Z,8.83
2018-01-23T05:29:43.338Z,7.40
2018-01-23T05:32:10.936Z,9.30
2018-01-23T05:34:38.677Z,4.83
2018-01-23T05:37:06.254Z,11.20
2018-01-23T05:39:33.845Z,14.90
2018-01-23T05:42:06.335Z,9.27
2018-01-23T05:44:33.978Z,8.20
2018-01-23T05:47:01.560Z,7.20
2018-01-23T05:49:29.159Z,19.93
2018-01-23T05:51:56.737Z,12.30
2018-01-23T05:54:25.040Z,11.00
2018-01-23T05:56:52.605Z,9.77
2018-01-23T05:59:20.194Z,7.87
2018-01-23T06:01:47.773Z,8.30
2018-01-23T06:04:15.368Z,4.03
2018-01-23T06:06:42.933Z,2.97
2018-01-23T06:09:10.521Z,3.70
2018-01-23T06:11:38.095Z,3.90
2018-01-23T06:14:05.685Z,3.13
2018-01-23T06:16:33.250Z,3.20
2018-01-23T06:19:01.620Z,3.87
2018-01-23T06:21:29.190Z,3.97
2018-01-23T06:23:56.783Z,3.90
2018-01-23T06:26:24.370Z,4.73
2018-01-23T06:28:52.153Z,4.53
2018-01-23T06:31:19.717Z,4.50
2018-01-23T06:33:47.306Z,4.90
2018-01-23T06:36:14.880Z,3.40
2018-01-23T06:38:42.464Z,4.43
2018-01-23T06:41:10.030Z,4.23
2018-01-23T06:43:37.622Z,4.13
2018-01-23T06:46:05.198Z,4.60
2018-01-23T06:48:34.298Z,3.30
2018-01-23T06:51:01.866Z,3.43
2018-01-23T06:53:29.472Z,4.87
2018-01-23T06:55:57.039Z,3.73
2018-01-23T06:58:24.606Z,4.80
2018-01-23T07:00:52.215Z,3.03
2018-01-23T07:03:20.545Z,3.40
2018-01-23T07:05:48.135Z,3.50
2018-01-23T07:08:15.694Z,3.73
2018-01-23T07:10:43.280Z,5.53
2018-01-23T07:13:11.619Z,4.13
2018-01-23T07:15:39.214Z,4.13
2018-01-23T07:18:06.807Z,3.03
2018-01-23T07:20:34.398Z,5.27
2018-01-23T07:23:01.972Z,3.47
2018-01-23T07:25:29.594Z,2.87
2018-01-23T07:27:57.163Z,3.90
2018-01-23T07:30:24.758Z,4.37
2018-01-23T07:32:52.324Z,2.97
2018-01-23T07:35:20.713Z,3.10
2018-01-23T07:37:48.292Z,3.37
2018-01-23T07:40:15.882Z,4.27
2018-01-23T07:42:43.450Z,3.50
2018-01-23T07:45:11.047Z,3.43
2018-01-23T07:47:39.383Z,4.23
2018-01-23T07:50:06.976Z,3.70
2018-01-23T07:52:35.312Z,3.57
2018-01-23T07:55:02.907Z,4.03
2018-01-23T07:57:30.473Z,3.10
2018-01-23T07:59:58.824Z,3.47
2018-01-23T08:02:26.399Z,4.13
2018-01-23T08:04:54.003Z,3.67
2018-01-23T08:07:21.580Z,5.03
2018-01-23T08:09:49.176Z,4.23
2018-01-23T08:12:16.798Z,3.87
2018-01-23T08:14:44.350Z,4.27
2018-01-23T08:17:11.949Z,9.00
2018-01-23T08:19:39.527Z,8.83
2018-01-23T08:22:07.117Z,6.10
2018-01-23T08:24:34.988Z,4.43
2018-01-23T08:27:02.582Z,5.83
2018-01-23T08:29:30.154Z,4.43
2018-01-23T08:31:57.742Z,4.17
2018-01-23T08:34:25.312Z,3.70
2018-01-23T08:36:52.910Z,5.40
2018-01-23T08:39:20.518Z,4.00
2018-01-23T08:41:48.110Z,6.47
2018-01-23T08:44:15.688Z,7.27
2018-01-23T08:46:43.282Z,5.53
2018-01-23T08:49:11.622Z,11.67
2018-01-23T08:51:39.220Z,5.50
2018-01-23T08:54:06.781Z,4.13
2018-01-23T08:56:34.370Z,3.60
2018-01-23T08:59:01.952Z,6.40
2018-01-23T09:01:29.541Z,3.07
2018-01-23T09:03:57.104Z,5.50
2018-01-23T09:06:24.694Z,3.33
2018-01-23T09:08:52.260Z,3.30
2018-01-23T09:11:19.851Z,5.80
2018-01-23T09:13:48.183Z,3.53
2018-01-23T09:16:15.778Z,4.00
2018-01-23T09:18:43.349Z,4.10
2018-01-23T09:21:10.945Z,2.77
2018-01-23T09:23:38.517Z,3.77
2018-01-23T09:26:06.110Z,3.20
2018-01-23T09:28:33.698Z,3.20
2018-01-23T09:31:01.274Z,4.67
2018-01-23T09:33:28.876Z,4.43
2018-01-23T09:35:56.444Z,5.03
2018-01-23T09:38:24.039Z,3.60
2018-01-23T09:40:51.624Z,4.00
2018-01-23T09:43:19.981Z,3.40
2018-01-23T09:45:47.578Z,3.70
2018-01-23T09:48:15.171Z,3.20
2018-01-23T09:50:42.740Z,5.10
2018-01-23T09:53:10.373Z,2.60
2018-01-23T09:55:37.942Z,3.60
2018-01-23T09:58:05.654Z,3.60
2018-01-23T10:00:33.986Z,2.50
2018-01-23T10:03:01.582Z,2.60
2018-01-23T10:05:29.145Z,2.20
2018-01-23T10:07:57.499Z,2.47
2018-01-23T10:10:25.062Z,2.97
2018-01-23T10:12:52.653Z,3.23
2018-01-23T10:15:20.989Z,2.87
2018-01-23T10:17:48.574Z,2.57
2018-01-23T10:20:16.150Z,2.70
2018-01-23T10:22:44.542Z,3.00
2018-01-23T10:25:12.114Z,2.80
2018-01-23T10:27:39.701Z,3.40
2018-01-23T10:30:07.270Z,3.07
2018-01-23T10:32:34.862Z,3.40
2018-01-23T10:35:03.375Z,2.80
2018-01-23T10:37:30.975Z,2.90
2018-01-23T10:39:58.541Z,2.87
2018-01-23T10:42:26.137Z,2.97
2018-01-23T10:44:53.723Z,2.80
2018-01-23T10:47:21.310Z,2.80
2018-01-23T10:49:48.935Z,2.93
2018-01-23T10:52:16.512Z,2.17
2018-01-23T10:54:44.242Z,3.20
2018-01-23T10:57:11.810Z,4.10
2018-01-23T10:59:39.397Z,2.97
2018-01-23T11:02:06.977Z,2.60
2018-01-23T11:04:34.577Z,3.07
2018-01-23T11:07:02.176Z,2.80
2018-01-23T11:09:30.379Z,2.70
2018-01-23T11:11:57.959Z,3.43
2018-01-23T11:14:25.560Z,3.80
2018-01-23T11:16:53.913Z,4.60
2018-01-23T11:19:21.523Z,4.00
2018-01-23T11:21:49.115Z,2.73
2018-01-23T11:24:16.725Z,2.83
2018-01-23T11:26:44.349Z,2.93
2018-01-23T11:29:11.947Z,3.53
2018-01-23T11:31:39.535Z,3.50
2018-01-23T11:34:07.894Z,2.83
2018-01-23T11:36:35.470Z,3.43
2018-01-23T11:39:03.110Z,3.30
2018-01-23T11:41:30.817Z,2.60
2018-01-23T11:43:58.421Z,2.67
2018-01-23T11:46:26.020Z,2.57
2018-01-23T11:48:54.398Z,3.07
2018-01-23T11:51:22.746Z,3.20
2018-01-23T11:53:50.352Z,3.10
2018-01-23T11:56:17.942Z,3.97
2018-01-23T11:58:45.536Z,2.70
2018-01-23T12:01:13.156Z,3.73
2018-01-23T12:03:40.773Z,4.13
2018-01-23T12:06:08.378Z,2.60
2018-01-23T12:08:35.950Z,2.87
2018-01-23T12:11:03.553Z,3.33
2018-01-23T12:13:31.908Z,3.17
2018-01-23T12:15:59.518Z,3.17
2018-01-23T12:18:27.090Z,2.63
2018-01-23T12:20:54.938Z,2.83
2018-01-23T12:23:22.541Z,3.37
2018-01-23T12:25:50.141Z,2.77
2018-01-23T12:28:18.479Z,2.50
2018-01-23T12:30:46.106Z,3.90
2018-01-23T12:33:13.677Z,4.53
2018-01-23T12:35:41.265Z,2.60
2018-01-23T12:38:09.105Z,3.07
2018-01-23T12:40:37.017Z,2.40
2018-01-23T12:43:04.634Z,3.60
2018-01-23T12:45:32.231Z,2.57
2018-01-23T12:48:02.229Z,2.57
2018-01-23T12:50:29.833Z,2.77
2018-01-23T12:52:57.409Z,2.70
2018-01-23T12:55:25.014Z,2.63
2018-01-23T12:57:52.604Z,3.10
2018-01-23T13:00:20.442Z,3.90
2018-01-23T13:02:48.021Z,2.80
2018-01-23T13:05:15.621Z,2.30
2018-01-23T13:07:43.194Z,2.17
2018-01-23T13:10:10.788Z,2.70
2018-01-23T13:12:38.369Z,3.27
2018-01-23T13:15:05.938Z,2.93
2018-01-23T13:17:33.541Z,2.33
2018-01-23T13:20:01.129Z,2.40
2018-01-23T13:22:28.743Z,3.47
2018-01-23T13:24:56.327Z,2.50
2018-01-23T13:27:23.933Z,3.57
2018-01-23T13:29:51.543Z,3.47
2018-01-23T13:32:19.138Z,2.27
2018-01-23T13:34:46.725Z,3.20
2018-01-23T13:37:14.324Z,2.47
2018-01-23T13:39:41.902Z,2.30
2018-01-23T13:42:10.277Z,2.93
2018-01-23T13:44:38.614Z,2.63
2018-01-23T13:47:06.234Z,6.30
2018-01-23T13:49:33.807Z,8.57
2018-01-23T13:52:01.402Z,6.63
2018-01-23T13:54:28.990Z,3.30
2018-01-23T13:56:56.595Z,5.93
2018-01-23T13:59:24.173Z,6.03
2018-01-23T14:01:51.774Z,3.90
2018-01-23T14:04:20.127Z,3.00
2018-01-23T14:06:47.729Z,3.40
2018-01-23T14:09:15.447Z,4.43
2018-01-23T14:11:43.114Z,3.17
2018-01-23T14:14:10.688Z,3.20
2018-01-23T14:16:38.283Z,3.87
2018-01-23T14:19:05.857Z,2.47
2018-01-23T14:21:33.439Z,2.20
2018-01-23T14:24:01.827Z,3.30
2018-01-23T14:26:29.846Z,3.63
2018-01-23T14:28:57.419Z,3.30
2018-01-23T14:31:25.038Z,3.23
2018-01-23T14:33:52.610Z,3.23
2018-01-23T14:36:20.972Z,2.80
2018-01-23T14:38:49.311Z,3.13
2018-01-23T14:41:19.929Z,5.33
2018-01-23T14:43:48.334Z,3.37
2018-01-23T14:46:15.908Z,4.43
2018-01-23T14:48:43.513Z,3.07
2018-01-23T14:51:11.082Z,2.90
2018-01-23T14:53:38.685Z,2.80
2018-01-23T14:56:06.269Z,3.27
2018-01-23T14:58:34.649Z,3.30
2018-01-23T15:01:02.213Z,5.97
2018-01-23T15:03:29.814Z,3.37
2018-01-23T15:05:57.390Z,3.07
2018-01-23T15:08:25.058Z,3.07
2018-01-23T15:10:52.642Z,6.40
2018-01-23T15:13:20.233Z,2.90
2018-01-23T15:15:48.569Z,4.00
2018-01-23T15:18:16.165Z,3.43
2018-01-23T15:20:43.738Z,3.10
2018-01-23T15:23:11.334Z,4.40
2018-01-23T15:25:38.920Z,4.17
2018-01-23T15:28:06.513Z,3.90
2018-01-23T15:30:34.073Z,4.10
2018-01-23T15:33:01.665Z,7.30
2018-01-23T15:35:29.234Z,6.10
2018-01-23T15:37:57.602Z,9.20
2018-01-23T15:40:25.174Z,4.67
2018-01-23T15:42:53.538Z,3.40
2018-01-23T15:45:21.113Z,2.90
2018-01-23T15:47:49.532Z,5.20
2018-01-23T15:50:17.090Z,3.93
2018-01-23T15:52:44.685Z,3.13
2018-01-23T15:55:12.258Z,4.30
2018-01-23T15:57:39.823Z,3.50
2018-01-23T16:00:07.412Z,3.40
2018-01-23T16:02:35.268Z,4.03
2018-01-23T16:05:02.884Z,4.60
2018-01-23T16:07:30.454Z,4.20
2018-01-23T16:09:58.056Z,3.60
2018-01-23T16:12:25.650Z,3.80
2018-01-23T16:14:53.256Z,3.43
2018-01-23T16:17:20.834Z,5.13
2018-01-23T16:19:48.510Z,4.83
2018-01-23T16:22:16.082Z,4.37
2018-01-23T16:24:43.776Z,3.70
2018-01-23T16:27:11.349Z,4.33
2018-01-23T16:29:39.713Z,3.73
2018-01-23T16:32:07.299Z,3.40
2018-01-23T16:34:34.892Z,4.50
2018-01-23T16:37:02.465Z,4.37
2018-01-23T16:39:30.063Z,4.00
2018-01-23T16:41:57.641Z,4.33
2018-01-23T16:44:25.261Z,4.20
2018-01-23T16:46:52.855Z,5.00
2018-01-23T16:49:21.221Z,4.10
2018-01-23T16:51:49.556Z,3.10
2018-01-23T16:54:17.154Z,3.27
2018-01-23T16:56:45.497Z,5.47
2018-01-23T16:59:13.101Z,3.90
2018-01-23T17:01:41.441Z,5.43
2018-01-23T17:04:09.029Z,4.70
2018-01-23T17:06:37.375Z,5.90
2018-01-23T17:09:05.051Z,4.40
2018-01-23T17:11:32.622Z,4.20
2018-01-23T17:14:00.962Z,4.80
2018-01-23T17:16:28.557Z,4.80
2018-01-23T17:18:56.121Z,4.97
2018-01-23T17:21:23.721Z,5.90
2018-01-23T17:23:52.057Z,5.60
2018-01-23T17:26:20.423Z,4.30
2018-01-23T17:28:47.993Z,4.50
2018-01-23T17:31:15.638Z,6.73
2018-01-23T17:33:43.265Z,3.77
2018-01-23T17:36:10.862Z,4.40
2018-01-23T17:38:38.447Z,4.07
2018-01-23T17:41:06.115Z,5.27
2018-01-23T17:43:33.732Z,4.57
2018-01-23T17:46:01.341Z,5.47
2018-01-23T17:48:28.906Z,5.47
2018-01-23T17:50:56.498Z,5.37
2018-01-23T17:53:24.477Z,5.03
2018-01-23T17:55:52.081Z,4.40
2018-01-23T17:58:19.660Z,4.20
2018-01-23T18:00:47.257Z,3.83
2018-01-23T18:03:14.888Z,5.33
2018-01-23T18:05:42.477Z,4.03
2018-01-23T18:08:10.057Z,4.77
2018-01-23T18:10:37.728Z,5.40
2018-01-23T18:13:06.086Z,4.80
2018-01-23T18:15:33.730Z,4.37
2018-01-23T18:18:01.300Z,3.00
2018-01-23T18:20:28.929Z,4.30
2018-01-23T18:22:56.528Z,4.40
2018-01-23T18:25:24.090Z,3.37
2018-01-23T18:27:51.694Z,3.47
2018-01-23T18:30:19.338Z,3.30
2018-01-23T18:32:46.925Z,4.00
2018-01-23T18:35:14.565Z,3.10
2018-01-23T18:37:42.155Z,4.47
2018-01-23T18:40:09.783Z,3.43
2018-01-23T18:42:37.428Z,3.00
2018-01-23T18:45:05.044Z,3.90
2018-01-23T18:47:33.431Z,3.60
2018-01-23T18:50:01.052Z,3.90
2018-01-23T18:52:28.693Z,3.07
2018-01-23T18:54:56.318Z,2.57
2018-01-23T18:57:23.922Z,3.43
2018-01-23T18:59:51.530Z,3.50
2018-01-23T19:02:19.163Z,3.67
2018-01-23T19:04:46.737Z,3.97
2018-01-23T19:07:14.342Z,4.80
2018-01-23T19:09:42.986Z,3.37
2018-01-23T19:12:11.396Z,3.53
2018-01-23T19:14:39.003Z,4.10
2018-01-23T19:17:06.643Z,2.97
2018-01-23T19:19:34.214Z,4.60
2018-01-23T19:22:01.805Z,3.00
2018-01-23T19:24:30.933Z,3.70
2018-01-23T19:26:59.340Z,4.10
2018-01-23T19:29:26.907Z,2.90
2018-01-23T19:31:54.569Z,3.03
2018-01-23T19:34:22.197Z,6.67
2018-01-23T19:36:49.815Z,4.47
2018-01-23T19:39:17.462Z,12.40
2018-01-23T19:41:45.039Z,8.87
2018-01-23T19:44:12.634Z,6.80
2018-01-23T19:46:40.198Z,5.10
2018-01-23T19:49:08.600Z,4.70
2018-01-23T19:51:36.222Z,4.27
2018-01-23T19:54:03.957Z,4.73
2018-01-23T19:56:31.580Z,4.50
2018-01-23T19:58:59.175Z,3.57
2018-01-23T20:01:26.786Z,4.33
2018-01-23T20:03:54.378Z,4.03
2018-01-23T20:06:22.003Z,3.83
2018-01-23T20:08:49.602Z,3.47
2018-01-23T20:11:17.230Z,4.77
2018-01-23T20:13:44.874Z,8.67
2018-01-23T20:16:12.495Z,4.10
2018-01-23T20:18:40.096Z,4.00
2018-01-23T20:21:07.721Z,5.33
2018-01-23T20:23:35.376Z,3.40
2018-01-23T20:26:02.987Z,8.17
2018-01-23T20:28:30.582Z,6.33
2018-01-23T20:30:58.201Z,4.27
2018-01-23T20:33:25.836Z,5.47
2018-01-23T20:35:53.410Z,5.60
2018-01-23T20:38:21.044Z,5.97
2018-01-23T20:40:48.609Z,5.53
2018-01-23T20:43:16.252Z,4.03
2018-01-23T20:45:43.874Z,4.03
2018-01-23T20:48:11.517Z,3.33
2018-01-23T20:50:39.848Z,3.10
2018-01-23T20:53:07.453Z,1.93
2018-01-23T20:55:35.073Z,2.37
2018-01-23T20:58:02.700Z,2.70
2018-01-23T21:00:30.362Z,3.03
2018-01-23T21:02:57.979Z,3.87
2018-01-23T21:05:25.612Z,5.30
2018-01-23T21:07:53.237Z,6.13
2018-01-23T21:10:20.873Z,9.73
2018-01-23T21:12:48.450Z,19.77
2018-01-23T21:15:16.096Z,28.67
2018-01-23T21:17:44.486Z,31.30
2018-01-23T21:20:12.178Z,16.80
2018-01-23T21:22:39.734Z,18.40
2018-01-23T21:25:07.381Z,21.03
2018-01-23T21:27:35.006Z,19.37
2018-01-23T21:30:02.651Z,23.03
2018-01-23T21:32:30.265Z,18.87
2018-01-23T21:34:57.859Z,13.13
2018-01-23T21:37:26.272Z,12.30
2018-01-23T21:39:54.625Z,13.70
2018-01-23T21:42:22.202Z,13.90
2018-01-23T21:44:50.615Z,10.70
2018-01-23T21:47:18.189Z,10.77
2018-01-23T21:49:45.769Z,8.90
2018-01-23T21:52:13.338Z,18.40
2018-01-23T21:54:40.985Z,28.93
2018-01-23T21:57:08.567Z,22.17
2018-01-23T21:59:36.170Z,42.77
2018-01-23T22:02:03.739Z,32.10
2018-01-23T22:04:31.337Z,15.53
2018-01-23T22:06:58.909Z,20.70
2018-01-23T22:09:27.246Z,14.67
2018-01-23T22:11:54.838Z,13.50
2018-01-23T22:14:22.406Z,9.60
2018-01-23T22:16:50.770Z,8.43
2018-01-23T22:19:18.344Z,9.33
2018-01-23T22:21:45.980Z,14.93
2018-01-23T22:24:13.591Z,7.33
2018-01-23T22:26:41.183Z,9.20
2018-01-23T22:29:08.749Z,7.87
2018-01-23T22:31:36.384Z,5.70
2018-01-23T22:34:03.961Z,6.63
2018-01-23T22:36:31.566Z,5.30
2018-01-23T22:38:59.907Z,4.53
2018-01-23T22:41:27.498Z,4.70
2018-01-23T22:43:55.066Z,4.77
2018-01-23T22:46:23.422Z,5.83
2018-01-23T22:48:51.000Z,11.70
2018-01-23T22:51:19.361Z,11.40
2018-01-23T22:53:46.975Z,2.80
2018-01-23T22:56:14.565Z,3.00
2018-01-23T22:58:42.133Z,2.90
2018-01-23T23:01:09.726Z,3.30
2018-01-23T23:03:37.301Z,3.47
2018-01-23T23:06:04.890Z,2.50
2018-01-23T23:08:32.453Z,2.60
2018-01-23T23:11:00.053Z,1.33
2018-01-23T23:13:27.618Z,2.27
2018-01-23T23:15:55.210Z,1.73
2018-01-23T23:18:22.773Z,1.83
2018-01-23T23:20:50.369Z,1.80
2018-01-23T23:23:17.926Z,1.80
2018-01-23T23:25:45.490Z,1.60
2018-01-23T23:28:13.077Z,1.40
2018-01-23T23:30:40.637Z,1.30
2018-01-23T23:33:08.231Z,2.00
2018-01-23T23:35:35.793Z,1.93
2018-01-23T23:38:03.387Z,5.00
2018-01-23T23:40:30.954Z,3.87
2018-01-23T23:42:59.301Z,1.70
2018-01-23T23:45:26.867Z,2.10
2018-01-23T23:47:54.457Z,1.70
2018-01-23T23:50:22.786Z,2.53
2018-01-23T23:52:50.379Z,1.70
2018-01-23T23:55:18.718Z,1.90
2018-01-23T23:57:46.300Z,2.93
